sensor_id;sensor_type;location;lat;lon;timestamp;temperature;humidity
921;DHT22;447;51.332;6.778;2023-08-17T00:01:25;25.10;94.50
921;DHT22;447;51.332;6.778;2023-08-17T00:03:54;25.10;94.50
921;DHT22;447;51.332;6.778;2023-08-17T00:06:22;25.10;94.50
921;DHT22;447;51.332;6.778;2023-08-17T00:08:48;25.10;94.50
921;DHT22;447;51.332;6.778;2023-08-17T00:11:18;25.10;94.50
921;DHT22;447;51.332;6.778;2023-08-17T00:13:49;25.10;94.50
921;DHT22;447;51.332;6.778;2023-08-17T00:16:20;25.10;94.50
921;DHT22;447;51.332;6.778;2023-08-17T00:18:45;25.10;94.50
921;DHT22;447;51.332;6.778;2023-08-17T00:21:12;25.10;94.60
921;DHT22;447;51.332;6.778;2023-08-17T00:23:38;25.00;94.50
921;DHT22;447;51.332;6.778;2023-08-17T00:26:11;25.00;94.50
921;DHT22;447;51.332;6.778;2023-08-17T00:28:39;25.00;94.50
921;DHT22;447;51.332;6.778;2023-08-17T00:31:07;25.00;94.50
921;DHT22;447;51.332;6.778;2023-08-17T00:33:38;25.00;94.60
921;DHT22;447;51.332;6.778;2023-08-17T00:36:04;24.90;94.60
921;DHT22;447;51.332;6.778;2023-08-17T00:38:35;24.90;94.60
921;DHT22;447;51.332;6.778;2023-08-17T00:41:02;24.90;94.60
921;DHT22;447;51.332;6.778;2023-08-17T00:43:28;24.90;94.60
921;DHT22;447;51.332;6.778;2023-08-17T00:45:57;24.90;94.60
921;DHT22;447;51.332;6.778;2023-08-17T00:48:24;24.90;94.60
921;DHT22;447;51.332;6.778;2023-08-17T00:50:50;24.90;94.70
921;DHT22;447;51.332;6.778;2023-08-17T00:53:19;24.90;94.70
921;DHT22;447;51.332;6.778;2023-08-17T00:55:46;24.90;94.70
921;DHT22;447;51.332;6.778;2023-08-17T00:58:17;24.80;94.60
921;DHT22;447;51.332;6.778;2023-08-17T01:00:43;24.80;94.60
921;DHT22;447;51.332;6.778;2023-08-17T01:06:07;24.80;94.60
921;DHT22;447;51.332;6.778;2023-08-17T01:08:33;24.80;94.60
921;DHT22;447;51.332;6.778;2023-08-17T01:14:02;24.80;94.60
921;DHT22;447;51.332;6.778;2023-08-17T01:16:41;24.70;94.60
921;DHT22;447;51.332;6.778;2023-08-17T01:19:12;24.70;94.60
921;DHT22;447;51.332;6.778;2023-08-17T01:21:54;24.70;94.70
921;DHT22;447;51.332;6.778;2023-08-17T01:24:25;24.70;94.70
921;DHT22;447;51.332;6.778;2023-08-17T01:26:53;24.70;94.70
921;DHT22;447;51.332;6.778;2023-08-17T01:29:19;24.70;94.70
921;DHT22;447;51.332;6.778;2023-08-17T01:34:32;24.70;94.80
921;DHT22;447;51.332;6.778;2023-08-17T01:37:00;24.60;94.70
921;DHT22;447;51.332;6.778;2023-08-17T01:39:37;24.60;94.70
921;DHT22;447;51.332;6.778;2023-08-17T01:42:05;24.60;94.70
921;DHT22;447;51.332;6.778;2023-08-17T01:44:32;24.60;94.70
921;DHT22;447;51.332;6.778;2023-08-17T01:46:58;24.50;94.80
921;DHT22;447;51.332;6.778;2023-08-17T01:49:27;24.60;94.90
921;DHT22;447;51.332;6.778;2023-08-17T01:52:01;24.50;94.80
921;DHT22;447;51.332;6.778;2023-08-17T01:54:28;24.50;94.80
921;DHT22;447;51.332;6.778;2023-08-17T01:56:55;24.50;94.80
921;DHT22;447;51.332;6.778;2023-08-17T01:59:21;24.50;94.80
921;DHT22;447;51.332;6.778;2023-08-17T02:01:52;24.50;94.80
921;DHT22;447;51.332;6.778;2023-08-17T02:04:20;24.50;94.90
921;DHT22;447;51.332;6.778;2023-08-17T02:06:49;24.50;94.90
921;DHT22;447;51.332;6.778;2023-08-17T02:09:17;24.50;94.90
921;DHT22;447;51.332;6.778;2023-08-17T02:11:43;24.40;94.90
921;DHT22;447;51.332;6.778;2023-08-17T02:14:10;24.40;94.80
921;DHT22;447;51.332;6.778;2023-08-17T02:16:38;24.40;94.90
921;DHT22;447;51.332;6.778;2023-08-17T02:19:04;24.40;94.80
921;DHT22;447;51.332;6.778;2023-08-17T02:21:30;24.40;94.80
921;DHT22;447;51.332;6.778;2023-08-17T02:23:57;24.40;94.80
921;DHT22;447;51.332;6.778;2023-08-17T02:26:25;24.40;94.80
921;DHT22;447;51.332;6.778;2023-08-17T02:28:51;24.40;94.80
921;DHT22;447;51.332;6.778;2023-08-17T02:31:17;24.40;94.80
921;DHT22;447;51.332;6.778;2023-08-17T02:33:45;24.40;94.90
921;DHT22;447;51.332;6.778;2023-08-17T02:36:10;24.40;94.90
921;DHT22;447;51.332;6.778;2023-08-17T02:38:38;24.40;94.90
921;DHT22;447;51.332;6.778;2023-08-17T02:41:03;24.30;94.80
921;DHT22;447;51.332;6.778;2023-08-17T02:43:31;24.30;94.90
921;DHT22;447;51.332;6.778;2023-08-17T02:45:58;24.30;94.80
921;DHT22;447;51.332;6.778;2023-08-17T02:48:26;24.40;94.90
921;DHT22;447;51.332;6.778;2023-08-17T02:50:54;24.30;94.90
921;DHT22;447;51.332;6.778;2023-08-17T02:53:22;24.30;94.90
921;DHT22;447;51.332;6.778;2023-08-17T02:55:50;24.30;94.90
921;DHT22;447;51.332;6.778;2023-08-17T02:58:19;24.30;94.90
921;DHT22;447;51.332;6.778;2023-08-17T03:00:45;24.30;94.90
921;DHT22;447;51.332;6.778;2023-08-17T03:03:11;24.20;94.90
921;DHT22;447;51.332;6.778;2023-08-17T03:05:37;24.20;94.80
921;DHT22;447;51.332;6.778;2023-08-17T03:08:06;24.20;94.90
921;DHT22;447;51.332;6.778;2023-08-17T03:10:32;24.20;94.90
921;DHT22;447;51.332;6.778;2023-08-17T03:13:01;24.20;94.90
921;DHT22;447;51.332;6.778;2023-08-17T03:15:29;24.20;94.90
921;DHT22;447;51.332;6.778;2023-08-17T03:17:55;24.20;94.90
921;DHT22;447;51.332;6.778;2023-08-17T03:20:21;24.20;94.90
921;DHT22;447;51.332;6.778;2023-08-17T03:22:47;24.20;94.90
921;DHT22;447;51.332;6.778;2023-08-17T03:25:14;24.20;94.90
921;DHT22;447;51.332;6.778;2023-08-17T03:27:43;24.10;94.80
921;DHT22;447;51.332;6.778;2023-08-17T03:30:11;24.10;94.90
921;DHT22;447;51.332;6.778;2023-08-17T03:32:42;24.10;94.90
921;DHT22;447;51.332;6.778;2023-08-17T03:35:08;24.10;94.90
921;DHT22;447;51.332;6.778;2023-08-17T03:37:35;24.10;94.90
921;DHT22;447;51.332;6.778;2023-08-17T03:40:01;24.10;94.90
921;DHT22;447;51.332;6.778;2023-08-17T03:42:31;24.10;94.90
921;DHT22;447;51.332;6.778;2023-08-17T03:44:57;24.10;94.90
921;DHT22;447;51.332;6.778;2023-08-17T03:47:23;24.10;94.90
921;DHT22;447;51.332;6.778;2023-08-17T03:49:49;24.10;94.90
921;DHT22;447;51.332;6.778;2023-08-17T03:52:17;24.00;94.90
921;DHT22;447;51.332;6.778;2023-08-17T03:54:44;24.00;94.90
921;DHT22;447;51.332;6.778;2023-08-17T03:57:11;24.00;94.90
921;DHT22;447;51.332;6.778;2023-08-17T03:59:37;24.00;94.90
921;DHT22;447;51.332;6.778;2023-08-17T04:02:04;24.00;94.90
921;DHT22;447;51.332;6.778;2023-08-17T04:04:33;24.00;94.90
921;DHT22;447;51.332;6.778;2023-08-17T04:07:01;24.00;94.90
921;DHT22;447;51.332;6.778;2023-08-17T04:09:31;23.90;95.00
921;DHT22;447;51.332;6.778;2023-08-17T04:11:59;23.90;94.90
921;DHT22;447;51.332;6.778;2023-08-17T04:14:25;23.90;94.90
921;DHT22;447;51.332;6.778;2023-08-17T04:16:52;23.90;94.90
921;DHT22;447;51.332;6.778;2023-08-17T04:19:20;23.90;94.90
921;DHT22;447;51.332;6.778;2023-08-17T04:21:48;23.90;94.90
921;DHT22;447;51.332;6.778;2023-08-17T04:24:14;23.90;94.90
921;DHT22;447;51.332;6.778;2023-08-17T04:26:46;23.90;94.90
921;DHT22;447;51.332;6.778;2023-08-17T04:29:13;23.90;94.90
921;DHT22;447;51.332;6.778;2023-08-17T04:31:39;23.80;94.90
921;DHT22;447;51.332;6.778;2023-08-17T04:34:07;23.80;94.90
921;DHT22;447;51.332;6.778;2023-08-17T04:36:38;23.80;94.90
921;DHT22;447;51.332;6.778;2023-08-17T04:39:05;23.80;95.30
921;DHT22;447;51.332;6.778;2023-08-17T04:41:34;23.80;94.90
921;DHT22;447;51.332;6.778;2023-08-17T04:44:05;23.80;94.90
921;DHT22;447;51.332;6.778;2023-08-17T04:46:33;23.80;94.90
921;DHT22;447;51.332;6.778;2023-08-17T04:49:00;23.80;94.90
921;DHT22;447;51.332;6.778;2023-08-17T04:51:29;23.80;94.90
921;DHT22;447;51.332;6.778;2023-08-17T04:54:02;23.80;94.90
921;DHT22;447;51.332;6.778;2023-08-17T04:56:30;23.80;94.90
921;DHT22;447;51.332;6.778;2023-08-17T04:58:59;23.70;94.80
921;DHT22;447;51.332;6.778;2023-08-17T05:01:30;23.70;94.90
921;DHT22;447;51.332;6.778;2023-08-17T05:04:01;23.70;94.80
921;DHT22;447;51.332;6.778;2023-08-17T05:06:36;23.70;94.80
921;DHT22;447;51.332;6.778;2023-08-17T05:09:05;23.70;94.80
921;DHT22;447;51.332;6.778;2023-08-17T05:11:33;23.70;94.80
921;DHT22;447;51.332;6.778;2023-08-17T05:14:03;23.70;94.80
921;DHT22;447;51.332;6.778;2023-08-17T05:16:32;23.70;94.90
921;DHT22;447;51.332;6.778;2023-08-17T05:19:00;23.70;94.90
921;DHT22;447;51.332;6.778;2023-08-17T05:21:29;23.70;94.90
921;DHT22;447;51.332;6.778;2023-08-17T05:23:56;23.60;94.80
921;DHT22;447;51.332;6.778;2023-08-17T05:26:22;23.60;94.80
921;DHT22;447;51.332;6.778;2023-08-17T05:28:48;23.60;94.90
921;DHT22;447;51.332;6.778;2023-08-17T05:31:18;23.60;94.80
921;DHT22;447;51.332;6.778;2023-08-17T05:33:46;23.60;94.80
921;DHT22;447;51.332;6.778;2023-08-17T05:36:16;23.60;94.80
921;DHT22;447;51.332;6.778;2023-08-17T05:38:45;23.60;94.80
921;DHT22;447;51.332;6.778;2023-08-17T05:41:13;23.60;95.20
921;DHT22;447;51.332;6.778;2023-08-17T05:43:43;23.60;94.90
921;DHT22;447;51.332;6.778;2023-08-17T05:46:12;23.60;94.90
921;DHT22;447;51.332;6.778;2023-08-17T05:48:38;23.60;94.90
921;DHT22;447;51.332;6.778;2023-08-17T05:51:05;23.50;95.20
921;DHT22;447;51.332;6.778;2023-08-17T05:53:31;23.50;94.80
921;DHT22;447;51.332;6.778;2023-08-17T05:55:57;23.50;94.90
921;DHT22;447;51.332;6.778;2023-08-17T05:58:26;23.50;94.90
921;DHT22;447;51.332;6.778;2023-08-17T06:00:53;23.50;94.90
921;DHT22;447;51.332;6.778;2023-08-17T06:03:19;23.50;94.90
921;DHT22;447;51.332;6.778;2023-08-17T06:05:45;23.50;95.00
921;DHT22;447;51.332;6.778;2023-08-17T06:08:13;23.50;95.00
921;DHT22;447;51.332;6.778;2023-08-17T06:10:46;23.50;94.90
921;DHT22;447;51.332;6.778;2023-08-17T06:13:15;23.50;95.00
921;DHT22;447;51.332;6.778;2023-08-17T06:15:44;23.40;94.90
921;DHT22;447;51.332;6.778;2023-08-17T06:18:15;23.40;95.00
921;DHT22;447;51.332;6.778;2023-08-17T06:20:44;23.40;95.00
921;DHT22;447;51.332;6.778;2023-08-17T06:23:13;23.40;95.10
921;DHT22;447;51.332;6.778;2023-08-17T06:25:40;23.40;95.10
921;DHT22;447;51.332;6.778;2023-08-17T06:28:06;23.40;95.10
921;DHT22;447;51.332;6.778;2023-08-17T06:30:35;23.40;95.10
921;DHT22;447;51.332;6.778;2023-08-17T06:33:05;23.40;95.10
921;DHT22;447;51.332;6.778;2023-08-17T06:35:33;23.40;95.50
921;DHT22;447;51.332;6.778;2023-08-17T06:38:02;23.40;95.10
921;DHT22;447;51.332;6.778;2023-08-17T06:40:33;23.30;95.10
921;DHT22;447;51.332;6.778;2023-08-17T06:42:59;23.40;95.10
921;DHT22;447;51.332;6.778;2023-08-17T06:45:27;23.30;95.10
921;DHT22;447;51.332;6.778;2023-08-17T06:47:53;23.30;95.10
921;DHT22;447;51.332;6.778;2023-08-17T06:50:20;23.30;95.10
921;DHT22;447;51.332;6.778;2023-08-17T06:52:51;23.30;95.10
921;DHT22;447;51.332;6.778;2023-08-17T06:55:17;23.30;95.20
921;DHT22;447;51.332;6.778;2023-08-17T06:57:45;23.30;95.20
921;DHT22;447;51.332;6.778;2023-08-17T07:00:11;23.30;95.20
921;DHT22;447;51.332;6.778;2023-08-17T07:02:40;23.30;95.20
921;DHT22;447;51.332;6.778;2023-08-17T07:05:06;23.30;95.20
921;DHT22;447;51.332;6.778;2023-08-17T07:07:32;23.30;95.20
921;DHT22;447;51.332;6.778;2023-08-17T07:10:06;23.30;95.20
921;DHT22;447;51.332;6.778;2023-08-17T07:12:35;23.30;95.20
921;DHT22;447;51.332;6.778;2023-08-17T07:15:04;23.30;95.20
921;DHT22;447;51.332;6.778;2023-08-17T07:17:32;23.30;95.30
921;DHT22;447;51.332;6.778;2023-08-17T07:20:00;23.20;95.20
921;DHT22;447;51.332;6.778;2023-08-17T07:22:26;23.30;95.30
921;DHT22;447;51.332;6.778;2023-08-17T07:24:55;23.20;95.30
921;DHT22;447;51.332;6.778;2023-08-17T07:27:28;23.30;95.30
921;DHT22;447;51.332;6.778;2023-08-17T07:29:56;23.20;95.30
921;DHT22;447;51.332;6.778;2023-08-17T07:32:27;23.20;95.30
921;DHT22;447;51.332;6.778;2023-08-17T07:34:53;23.20;95.30
921;DHT22;447;51.332;6.778;2023-08-17T07:37:20;23.20;95.30
921;DHT22;447;51.332;6.778;2023-08-17T07:39:46;23.20;95.30
921;DHT22;447;51.332;6.778;2023-08-17T07:42:12;23.20;95.30
921;DHT22;447;51.332;6.778;2023-08-17T07:44:38;23.20;95.40
921;DHT22;447;51.332;6.778;2023-08-17T07:47:11;23.20;95.40
921;DHT22;447;51.332;6.778;2023-08-17T07:49:40;23.20;95.40
921;DHT22;447;51.332;6.778;2023-08-17T07:52:12;23.20;95.40
921;DHT22;447;51.332;6.778;2023-08-17T07:54:38;23.10;95.40
921;DHT22;447;51.332;6.778;2023-08-17T07:57:09;23.20;95.50
921;DHT22;447;51.332;6.778;2023-08-17T07:59:35;23.20;95.40
921;DHT22;447;51.332;6.778;2023-08-17T08:02:01;23.20;95.40
921;DHT22;447;51.332;6.778;2023-08-17T08:04:27;23.10;95.40
921;DHT22;447;51.332;6.778;2023-08-17T08:06:56;23.20;95.50
921;DHT22;447;51.332;6.778;2023-08-17T08:09:23;23.10;95.40
921;DHT22;447;51.332;6.778;2023-08-17T08:11:49;23.10;95.40
921;DHT22;447;51.332;6.778;2023-08-17T08:14:18;23.10;95.50
921;DHT22;447;51.332;6.778;2023-08-17T08:16:44;23.10;95.50
921;DHT22;447;51.332;6.778;2023-08-17T08:19:11;23.10;95.50
921;DHT22;447;51.332;6.778;2023-08-17T08:21:39;23.10;95.50
921;DHT22;447;51.332;6.778;2023-08-17T08:24:05;23.10;95.50
921;DHT22;447;51.332;6.778;2023-08-17T08:26:35;23.10;95.50
921;DHT22;447;51.332;6.778;2023-08-17T08:29:03;23.10;95.50
921;DHT22;447;51.332;6.778;2023-08-17T08:31:34;23.10;95.60
921;DHT22;447;51.332;6.778;2023-08-17T08:34:02;23.10;95.60
921;DHT22;447;51.332;6.778;2023-08-17T08:36:28;23.10;95.60
921;DHT22;447;51.332;6.778;2023-08-17T08:38:57;23.10;95.60
921;DHT22;447;51.332;6.778;2023-08-17T08:41:26;23.10;95.60
921;DHT22;447;51.332;6.778;2023-08-17T08:43:53;23.10;95.60
921;DHT22;447;51.332;6.778;2023-08-17T08:46:24;23.10;95.60
921;DHT22;447;51.332;6.778;2023-08-17T08:48:55;23.10;95.70
921;DHT22;447;51.332;6.778;2023-08-17T08:51:28;23.10;95.70
921;DHT22;447;51.332;6.778;2023-08-17T08:54:01;23.10;95.70
921;DHT22;447;51.332;6.778;2023-08-17T08:56:32;23.10;95.70
921;DHT22;447;51.332;6.778;2023-08-17T08:59:04;23.10;95.80
921;DHT22;447;51.332;6.778;2023-08-17T09:01:31;23.00;95.80
921;DHT22;447;51.332;6.778;2023-08-17T09:04:00;23.00;95.70
921;DHT22;447;51.332;6.778;2023-08-17T09:06:30;23.00;95.70
921;DHT22;447;51.332;6.778;2023-08-17T09:08:58;23.00;95.70
921;DHT22;447;51.332;6.778;2023-08-17T09:11:28;23.00;95.70
921;DHT22;447;51.332;6.778;2023-08-17T09:13:55;23.00;95.80
921;DHT22;447;51.332;6.778;2023-08-17T09:16:31;23.00;95.80
921;DHT22;447;51.332;6.778;2023-08-17T09:19:06;23.00;95.80
921;DHT22;447;51.332;6.778;2023-08-17T09:21:34;23.10;95.80
921;DHT22;447;51.332;6.778;2023-08-17T09:24:03;23.00;95.90
921;DHT22;447;51.332;6.778;2023-08-17T09:26:34;23.00;95.80
921;DHT22;447;51.332;6.778;2023-08-17T09:29:18;23.00;96.20
921;DHT22;447;51.332;6.778;2023-08-17T09:31:49;23.00;95.90
921;DHT22;447;51.332;6.778;2023-08-17T09:34:22;23.00;95.90
921;DHT22;447;51.332;6.778;2023-08-17T09:36:48;23.00;95.90
921;DHT22;447;51.332;6.778;2023-08-17T09:39:19;23.00;95.90
921;DHT22;447;51.332;6.778;2023-08-17T09:41:48;23.00;95.90
921;DHT22;447;51.332;6.778;2023-08-17T09:44:19;23.00;95.90
921;DHT22;447;51.332;6.778;2023-08-17T09:46:44;23.00;95.90
921;DHT22;447;51.332;6.778;2023-08-17T09:49:11;23.00;95.90
921;DHT22;447;51.332;6.778;2023-08-17T09:51:37;23.00;95.90
921;DHT22;447;51.332;6.778;2023-08-17T09:54:04;23.00;96.00
921;DHT22;447;51.332;6.778;2023-08-17T09:56:31;23.00;96.00
921;DHT22;447;51.332;6.778;2023-08-17T09:58:57;23.00;96.00
921;DHT22;447;51.332;6.778;2023-08-17T10:01:25;23.00;96.00
921;DHT22;447;51.332;6.778;2023-08-17T10:03:55;23.00;95.90
921;DHT22;447;51.332;6.778;2023-08-17T10:06:27;23.00;96.00
921;DHT22;447;51.332;6.778;2023-08-17T10:08:56;23.00;96.00
921;DHT22;447;51.332;6.778;2023-08-17T10:11:24;23.00;96.10
921;DHT22;447;51.332;6.778;2023-08-17T10:13:59;23.00;96.00
921;DHT22;447;51.332;6.778;2023-08-17T10:16:45;23.00;96.00
921;DHT22;447;51.332;6.778;2023-08-17T10:19:33;23.00;96.10
921;DHT22;447;51.332;6.778;2023-08-17T10:24:29;23.00;96.20
921;DHT22;447;51.332;6.778;2023-08-17T10:27:23;23.00;96.30
921;DHT22;447;51.332;6.778;2023-08-17T10:29:51;23.00;96.30
921;DHT22;447;51.332;6.778;2023-08-17T10:32:22;23.00;96.30
921;DHT22;447;51.332;6.778;2023-08-17T10:34:54;23.00;96.20
921;DHT22;447;51.332;6.778;2023-08-17T10:37:23;23.00;96.10
921;DHT22;447;51.332;6.778;2023-08-17T10:39:52;23.00;96.30
921;DHT22;447;51.332;6.778;2023-08-17T10:47:50;23.00;96.30
921;DHT22;447;51.332;6.778;2023-08-17T10:50:25;23.00;96.30
921;DHT22;447;51.332;6.778;2023-08-17T10:53:13;23.00;96.30
921;DHT22;447;51.332;6.778;2023-08-17T10:55:46;23.00;96.30
921;DHT22;447;51.332;6.778;2023-08-17T10:58:16;23.00;96.30
921;DHT22;447;51.332;6.778;2023-08-17T11:00:45;23.00;96.40
921;DHT22;447;51.332;6.778;2023-08-17T11:03:22;23.00;96.30
921;DHT22;447;51.332;6.778;2023-08-17T11:05:53;23.00;96.30
921;DHT22;447;51.332;6.778;2023-08-17T11:08:28;23.00;96.40
921;DHT22;447;51.332;6.778;2023-08-17T11:13:31;23.00;96.20
921;DHT22;447;51.332;6.778;2023-08-17T11:15:59;23.00;96.30
921;DHT22;447;51.332;6.778;2023-08-17T11:18:28;23.00;96.30
921;DHT22;447;51.332;6.778;2023-08-17T11:21:01;23.10;96.60
921;DHT22;447;51.332;6.778;2023-08-17T11:23:30;23.10;96.60
921;DHT22;447;51.332;6.778;2023-08-17T11:25:57;23.10;96.60
921;DHT22;447;51.332;6.778;2023-08-17T11:28:32;23.10;96.90
921;DHT22;447;51.332;6.778;2023-08-17T11:31:11;23.10;96.70
921;DHT22;447;51.332;6.778;2023-08-17T11:33:42;23.10;96.60
921;DHT22;447;51.332;6.778;2023-08-17T11:36:14;23.10;97.00
921;DHT22;447;51.332;6.778;2023-08-17T11:38:45;23.10;97.10
921;DHT22;447;51.332;6.778;2023-08-17T11:41:14;23.10;97.10
921;DHT22;447;51.332;6.778;2023-08-17T11:43:42;23.10;97.10
921;DHT22;447;51.332;6.778;2023-08-17T11:46:09;23.10;97.10
921;DHT22;447;51.332;6.778;2023-08-17T11:48:39;23.10;96.80
921;DHT22;447;51.332;6.778;2023-08-17T11:51:14;23.10;97.00
921;DHT22;447;51.332;6.778;2023-08-17T11:53:40;23.10;97.20
921;DHT22;447;51.332;6.778;2023-08-17T11:56:07;23.10;97.20
921;DHT22;447;51.332;6.778;2023-08-17T11:58:43;23.10;97.00
921;DHT22;447;51.332;6.778;2023-08-17T12:01:13;23.10;97.00
921;DHT22;447;51.332;6.778;2023-08-17T12:03:41;23.10;97.00
921;DHT22;447;51.332;6.778;2023-08-17T12:06:10;23.10;97.00
921;DHT22;447;51.332;6.778;2023-08-17T12:08:38;23.10;96.90
921;DHT22;447;51.332;6.778;2023-08-17T12:11:07;23.10;96.80
921;DHT22;447;51.332;6.778;2023-08-17T12:13:33;23.20;96.80
921;DHT22;447;51.332;6.778;2023-08-17T12:16:00;23.20;96.80
921;DHT22;447;51.332;6.778;2023-08-17T12:18:26;23.20;96.70
921;DHT22;447;51.332;6.778;2023-08-17T12:20:53;23.20;96.70
921;DHT22;447;51.332;6.778;2023-08-17T12:23:21;23.20;96.70
921;DHT22;447;51.332;6.778;2023-08-17T12:25:54;23.20;96.70
921;DHT22;447;51.332;6.778;2023-08-17T12:28:23;23.20;96.70
921;DHT22;447;51.332;6.778;2023-08-17T12:31:04;23.20;96.70
921;DHT22;447;51.332;6.778;2023-08-17T12:33:33;23.20;96.70
921;DHT22;447;51.332;6.778;2023-08-17T12:35:59;23.20;96.60
921;DHT22;447;51.332;6.778;2023-08-17T12:38:27;23.20;96.60
921;DHT22;447;51.332;6.778;2023-08-17T12:40:56;23.20;96.60
921;DHT22;447;51.332;6.778;2023-08-17T12:43:24;23.20;96.50
921;DHT22;447;51.332;6.778;2023-08-17T12:45:54;23.20;96.50
921;DHT22;447;51.332;6.778;2023-08-17T12:48:27;23.30;96.60
921;DHT22;447;51.332;6.778;2023-08-17T12:50:55;23.30;96.60
921;DHT22;447;51.332;6.778;2023-08-17T12:53:27;23.30;96.60
921;DHT22;447;51.332;6.778;2023-08-17T12:55:53;23.30;96.60
921;DHT22;447;51.332;6.778;2023-08-17T12:58:19;23.30;96.60
921;DHT22;447;51.332;6.778;2023-08-17T13:00:45;23.30;96.60
921;DHT22;447;51.332;6.778;2023-08-17T13:03:11;23.30;96.60
921;DHT22;447;51.332;6.778;2023-08-17T13:05:42;23.30;96.60
921;DHT22;447;51.332;6.778;2023-08-17T13:08:09;23.30;96.50
921;DHT22;447;51.332;6.778;2023-08-17T13:10:41;23.30;96.60
921;DHT22;447;51.332;6.778;2023-08-17T13:13:09;23.30;96.60
921;DHT22;447;51.332;6.778;2023-08-17T13:15:38;23.30;96.50
921;DHT22;447;51.332;6.778;2023-08-17T13:18:06;23.30;96.50
921;DHT22;447;51.332;6.778;2023-08-17T13:20:32;23.30;96.50
921;DHT22;447;51.332;6.778;2023-08-17T13:23:02;23.30;96.50
921;DHT22;447;51.332;6.778;2023-08-17T13:25:34;23.40;96.60
921;DHT22;447;51.332;6.778;2023-08-17T13:28:00;23.40;96.70
921;DHT22;447;51.332;6.778;2023-08-17T13:30:31;23.30;96.60
921;DHT22;447;51.332;6.778;2023-08-17T13:32:57;23.40;96.70
921;DHT22;447;51.332;6.778;2023-08-17T13:35:24;23.40;96.70
921;DHT22;447;51.332;6.778;2023-08-17T13:37:56;23.40;96.60
921;DHT22;447;51.332;6.778;2023-08-17T13:40:25;23.40;96.60
921;DHT22;447;51.332;6.778;2023-08-17T13:42:54;23.40;96.70
921;DHT22;447;51.332;6.778;2023-08-17T13:45:22;23.40;96.70
921;DHT22;447;51.332;6.778;2023-08-17T13:47:53;23.40;97.00
921;DHT22;447;51.332;6.778;2023-08-17T13:50:19;23.40;96.90
921;DHT22;447;51.332;6.778;2023-08-17T13:52:45;23.40;96.80
921;DHT22;447;51.332;6.778;2023-08-17T13:55:12;23.40;96.90
921;DHT22;447;51.332;6.778;2023-08-17T13:57:41;23.40;97.00
921;DHT22;447;51.332;6.778;2023-08-17T14:00:13;23.40;97.10
921;DHT22;447;51.332;6.778;2023-08-17T14:02:42;23.40;96.90
921;DHT22;447;51.332;6.778;2023-08-17T14:05:08;23.40;96.90
921;DHT22;447;51.332;6.778;2023-08-17T14:07:34;23.40;97.00
921;DHT22;447;51.332;6.778;2023-08-17T14:10:03;23.40;96.90
921;DHT22;447;51.332;6.778;2023-08-17T14:12:30;23.40;97.10
921;DHT22;447;51.332;6.778;2023-08-17T14:15:02;23.40;97.30
921;DHT22;447;51.332;6.778;2023-08-17T14:17:32;23.40;97.20
921;DHT22;447;51.332;6.778;2023-08-17T14:20:00;23.40;97.10
921;DHT22;447;51.332;6.778;2023-08-17T14:22:28;23.40;97.20
921;DHT22;447;51.332;6.778;2023-08-17T14:24:59;23.40;96.90
921;DHT22;447;51.332;6.778;2023-08-17T14:27:25;23.40;96.90
921;DHT22;447;51.332;6.778;2023-08-17T14:29:51;23.40;96.80
921;DHT22;447;51.332;6.778;2023-08-17T14:32:24;23.40;96.70
921;DHT22;447;51.332;6.778;2023-08-17T14:35:00;23.40;96.70
921;DHT22;447;51.332;6.778;2023-08-17T14:37:31;23.40;97.10
921;DHT22;447;51.332;6.778;2023-08-17T14:39:59;23.50;97.00
921;DHT22;447;51.332;6.778;2023-08-17T14:42:27;23.50;96.90
921;DHT22;447;51.332;6.778;2023-08-17T14:45:00;23.50;96.90
921;DHT22;447;51.332;6.778;2023-08-17T14:47:31;23.50;96.90
921;DHT22;447;51.332;6.778;2023-08-17T14:50:00;23.50;97.20
921;DHT22;447;51.332;6.778;2023-08-17T14:52:26;23.50;97.00
921;DHT22;447;51.332;6.778;2023-08-17T14:54:52;23.50;96.90
921;DHT22;447;51.332;6.778;2023-08-17T14:57:20;23.50;96.80
921;DHT22;447;51.332;6.778;2023-08-17T14:59:46;23.50;96.80
921;DHT22;447;51.332;6.778;2023-08-17T15:02:17;23.60;97.00
921;DHT22;447;51.332;6.778;2023-08-17T15:04:44;23.60;97.10
921;DHT22;447;51.332;6.778;2023-08-17T15:07:13;23.60;96.90
921;DHT22;447;51.332;6.778;2023-08-17T15:09:50;23.60;96.90
921;DHT22;447;51.332;6.778;2023-08-17T15:12:20;23.60;96.80
921;DHT22;447;51.332;6.778;2023-08-17T15:14:46;23.60;96.80
921;DHT22;447;51.332;6.778;2023-08-17T15:17:21;23.60;96.70
921;DHT22;447;51.332;6.778;2023-08-17T15:19:48;23.60;96.80
921;DHT22;447;51.332;6.778;2023-08-17T15:22:14;23.60;96.80
921;DHT22;447;51.332;6.778;2023-08-17T15:24:43;23.70;96.90
921;DHT22;447;51.332;6.778;2023-08-17T15:27:13;23.70;96.90
921;DHT22;447;51.332;6.778;2023-08-17T15:29:39;23.70;97.00
921;DHT22;447;51.332;6.778;2023-08-17T15:32:10;23.70;96.90
921;DHT22;447;51.332;6.778;2023-08-17T15:34:39;23.70;96.90
921;DHT22;447;51.332;6.778;2023-08-17T15:37:08;23.70;96.90
921;DHT22;447;51.332;6.778;2023-08-17T15:39:34;23.70;96.90
921;DHT22;447;51.332;6.778;2023-08-17T15:42:00;23.80;96.90
921;DHT22;447;51.332;6.778;2023-08-17T15:44:26;23.80;96.90
921;DHT22;447;51.332;6.778;2023-08-17T15:46:56;23.80;96.80
921;DHT22;447;51.332;6.778;2023-08-17T15:49:28;23.80;96.80
921;DHT22;447;51.332;6.778;2023-08-17T15:51:54;23.80;96.80
921;DHT22;447;51.332;6.778;2023-08-17T15:54:20;23.80;96.70
921;DHT22;447;51.332;6.778;2023-08-17T15:56:49;23.90;96.70
921;DHT22;447;51.332;6.778;2023-08-17T15:59:15;23.90;96.60
921;DHT22;447;51.332;6.778;2023-08-17T16:01:41;23.90;96.70
921;DHT22;447;51.332;6.778;2023-08-17T16:04:09;23.90;96.70
921;DHT22;447;51.332;6.778;2023-08-17T16:06:35;23.90;96.60
921;DHT22;447;51.332;6.778;2023-08-17T16:09:01;23.90;96.60
921;DHT22;447;51.332;6.778;2023-08-17T16:11:27;23.90;96.60
921;DHT22;447;51.332;6.778;2023-08-17T16:13:53;23.90;96.50
921;DHT22;447;51.332;6.778;2023-08-17T16:16:23;23.90;96.50
921;DHT22;447;51.332;6.778;2023-08-17T16:18:49;23.90;96.50
921;DHT22;447;51.332;6.778;2023-08-17T16:21:15;23.90;96.60
921;DHT22;447;51.332;6.778;2023-08-17T16:23:41;23.90;96.70
921;DHT22;447;51.332;6.778;2023-08-17T16:26:08;23.90;96.70
921;DHT22;447;51.332;6.778;2023-08-17T16:28:34;23.90;96.90
921;DHT22;447;51.332;6.778;2023-08-17T16:31:00;23.90;97.00
921;DHT22;447;51.332;6.778;2023-08-17T16:33:26;23.90;96.90
921;DHT22;447;51.332;6.778;2023-08-17T16:35:54;23.90;96.80
921;DHT22;447;51.332;6.778;2023-08-17T16:38:20;23.90;96.80
921;DHT22;447;51.332;6.778;2023-08-17T16:40:46;23.90;97.20
921;DHT22;447;51.332;6.778;2023-08-17T16:43:12;23.90;96.80
921;DHT22;447;51.332;6.778;2023-08-17T16:45:38;23.90;96.80
921;DHT22;447;51.332;6.778;2023-08-17T16:48:05;24.00;96.80
921;DHT22;447;51.332;6.778;2023-08-17T16:50:33;24.00;96.80
921;DHT22;447;51.332;6.778;2023-08-17T16:52:59;24.00;96.80
921;DHT22;447;51.332;6.778;2023-08-17T16:55:25;24.00;96.70
921;DHT22;447;51.332;6.778;2023-08-17T16:57:51;24.00;96.60
921;DHT22;447;51.332;6.778;2023-08-17T17:00:17;24.10;96.60
921;DHT22;447;51.332;6.778;2023-08-17T17:02:49;24.10;96.60